This is the latest recevied weather packets stored in our database for station/object EA8EE-7. If no packets are shown the sender has not sent any weather packets the latest 10 day(s).
| Time | Temp. | Humidity | Pressure | Rain* | Wind** | Luminosity | Snow |
|---|---|---|---|---|---|---|---|
| 1788408996 | 36.11° C | 33% | 1026.3 hPa | - | - | - | - |
| 1788408396 | 36.11° C | 33% | 1025.9 hPa | - | - | - | - |
| 1788407796 | 36.11° C | 33% | 1026.1 hPa | - | - | - | - |
| 1788407196 | 36.11° C | 33% | 1027 hPa | - | - | - | - |
| 1788406596 | 36.11° C | 33% | 1027.5 hPa | - | - | - | - |
| 1788405996 | 36.11° C | 33% | 1027.1 hPa | - | - | - | - |
| 1788405396 | 36.11° C | 33% | 1026.3 hPa | - | - | - | - |
| 1788404796 | 36.11° C | 33% | 1025.2 hPa | - | - | - | - |
| 1788404196 | 36.11° C | 32% | 1024.8 hPa | - | - | - | - |
| 1788403596 | 36.11° C | 33% | 1025.5 hPa | - | - | - | - |
| 1788402996 | 36.11° C | 33% | 1025.4 hPa | - | - | - | - |
| 1788380196 | 38.89° C | 31% | 1024.2 hPa | - | - | - | - |
| 1788379596 | 37.78° C | 34% | 1026.5 hPa | - | - | - | - |
| 1788378996 | 36.11° C | 38% | 1027.4 hPa | - | - | - | - |
| 1788378396 | 32.78° C | 42% | 1026.6 hPa | - | - | - | - |
| 1788377795 | 33.89° C | 41% | 1023.4 hPa | - | - | - | - |
| 1788372585 | 35° C | 34% | 1027.2 hPa | - | - | - | - |
| 1788370185 | 36.67° C | 32% | 1027.2 hPa | - | - | - | - |
| 1788369585 | 37.22° C | 32% | 1028.5 hPa | - | - | - | - |
| 1788368985 | 37.22° C | 31% | 1027.3 hPa | - | - | - | - |
| 1788368385 | 37.22° C | 31% | 1026.8 hPa | - | - | - | - |
| 1788367185 | 38.33° C | 27% | 1026.6 hPa | - | - | - | - |
| 1788366584 | 40.56° C | 28% | 1034.7 hPa | - | - | - | - |
| 1788365984 | 40.56° C | 25% | 1053.1 hPa | - | - | - | - |
| 1788362930 | 46.11° C | 20% | 1026 hPa | - | - | - | - |
* Rain since midnight (hover to see other rain measurements)
** Current wind speed in m/s (hover to see current wind gust speed)